Time;durP1;ratioP1;P1;durP2;ratioP2;P2;SDS_P1;SDS_P2;PMS_P1;PMS_P2;Temp;Humidity;BMP_temperature;BMP_pressure;BME280_temperature;BME280_humidity;BME280_pressure;Samples;Min_cycle;Max_cycle;Signal;HPM_P1;HPM_P2
2021/11/16 00:04:21;;;;;;;;;;;5.50;99.90;;;4.48;100.00;95970.06;10445664;28;1909;-72
2021/11/16 00:09:24;;;;;;;;;;;5.50;99.90;;;4.49;100.00;95977.81;10449627;28;1834;-73
2021/11/16 00:14:28;;;;;;;;;;;5.60;99.90;;;4.45;100.00;95971.31;10448973;28;1853;-73
2021/11/16 00:19:31;;;;;;;;;;;5.60;99.90;;;4.40;100.00;95973.06;10446261;28;1945;-73
2021/11/16 00:24:38;;;;;;;;;;;5.60;99.90;;;4.45;100.00;95970.50;10440872;28;1898;-73
2021/11/16 00:29:42;;;;;;;;;;;5.60;99.90;;;4.57;100.00;95973.97;10445169;28;1925;-73
2021/11/16 00:34:45;;;;;;;;;;;5.60;99.90;;;4.51;100.00;95974.91;10440718;28;2066;-73
2021/11/16 00:39:48;;;;;;;;;;;5.60;99.90;;;4.44;100.00;95974.19;10443435;28;1906;-72
2021/11/16 00:44:51;;;;;;;;;;;5.60;99.90;;;4.48;100.00;95970.88;10447424;28;2152;-72
2021/11/16 00:49:54;;;;;;;;;;;5.60;99.90;;;4.33;100.00;95971.31;10442717;28;1889;-72
2021/11/16 00:54:57;;;;;;;;;;;5.50;99.90;;;4.33;100.00;95960.66;10450146;28;1873;-72
2021/11/16 00:59:59;;;;;;;;;;;5.40;99.90;;;4.41;100.00;95966.69;10450252;28;1945;-72
2021/11/16 01:05:02;;;;;;;;;;;5.50;99.90;;;4.47;100.00;95969.25;10441915;28;1556;-73
2021/11/16 01:10:05;;;;;;;;;;;5.60;99.90;;;4.50;100.00;95967.97;10438706;28;1906;-73
2021/11/16 01:15:08;;;;;;;;;;;5.60;99.90;;;4.42;100.00;95966.44;10441995;28;2039;-73
2021/11/16 01:20:11;;;;;;;;;;;5.60;99.90;;;4.50;100.00;95962.63;10434352;28;1936;-73
2021/11/16 01:25:14;;;;;;;;;;;5.60;99.90;;;4.48;100.00;95978.03;10443696;28;2033;-73
2021/11/16 01:30:17;;;;;;;;;;;5.60;99.90;;;4.59;100.00;95982.56;10440066;28;1921;-73
2021/11/16 01:35:20;;;;;;;;;;;5.70;99.90;;;4.72;100.00;95966.38;10432371;28;2051;-73
2021/11/16 01:40:23;;;;;;;;;;;5.80;99.90;;;4.75;100.00;95981.06;10440306;28;2024;-73
2021/11/16 01:45:26;;;;;;;;;;;5.80;99.90;;;4.66;100.00;95955.81;10444240;28;2007;-73
2021/11/16 01:50:31;;;;;;;;;;;5.80;99.90;;;4.66;100.00;95972.63;10445826;28;2028;-73
2021/11/16 01:55:34;;;;;;;;;;;5.80;99.90;;;4.58;100.00;95957.81;10444165;28;1991;-74
2021/11/16 02:00:37;;;;;;;;;;;5.70;99.90;;;4.37;100.00;95969.00;10444510;28;2082;-74
2021/11/16 02:05:40;;;;;;;;;;;5.60;99.90;;;4.51;100.00;95972.25;10433887;28;2008;-73
2021/11/16 02:10:43;;;;;;;;;;;5.60;99.90;;;4.63;100.00;95962.41;10439676;28;2011;-72
2021/11/16 02:15:46;;;;;;;;;;;5.70;99.90;;;4.77;100.00;95953.16;10446308;28;2065;-73
2021/11/16 02:20:50;;;;;;;;;;;5.70;99.90;;;4.72;100.00;95961.03;10450243;28;2003;-74
2021/11/16 02:26:13;;;;;;;;;;;5.80;99.90;;;4.77;100.00;95957.66;10453015;28;1994;-74
2021/11/16 02:31:16;;;;;;;;;;;5.80;99.90;;;4.67;100.00;95958.25;10448212;28;2131;-74
2021/11/16 02:36:41;;;;;;;;;;;5.80;99.90;;;4.77;100.00;95958.50;10456281;28;2034;-74
2021/11/16 02:41:44;;;;;;;;;;;5.80;99.90;;;4.78;100.00;95959.31;10453874;28;2006;-74
2021/11/16 02:47:08;;;;;;;;;;;5.80;99.90;;;4.59;100.00;95955.94;10449635;28;2014;-74
2021/11/16 02:52:11;;;;;;;;;;;5.70;99.90;;;4.55;100.00;95960.09;10442891;28;1949;-74
2021/11/16 02:57:14;;;;;;;;;;;5.70;99.90;;;4.57;100.00;95966.81;10448635;28;2024;-74
2021/11/16 03:02:17;;;;;;;;;;;5.60;99.90;;;4.46;100.00;95962.31;10445728;28;2006;-73
2021/11/16 03:07:20;;;;;;;;;;;5.60;99.90;;;4.58;100.00;95960.47;10449021;28;2020;-72
2021/11/16 03:12:23;;;;;;;;;;;5.60;99.90;;;4.60;100.00;95962.88;10448572;28;1971;-73
2021/11/16 03:17:26;;;;;;;;;;;5.60;99.90;;;4.55;100.00;95968.09;10452438;28;2144;-73
2021/11/16 03:22:35;;;;;;;;;;;5.60;99.90;;;4.52;100.00;95965.91;10450744;28;2056;-73
2021/11/16 03:27:40;;;;;;;;;;;5.60;99.90;;;4.33;100.00;95958.00;10449389;28;2031;-73
2021/11/16 03:32:44;;;;;;;;;;;5.50;99.90;;;4.33;100.00;95960.66;10451564;28;2013;-74
2021/11/16 03:37:50;;;;;;;;;;;5.50;99.90;;;4.20;100.00;95968.88;10454768;28;2042;-73
2021/11/16 03:42:53;;;;;;;;;;;5.40;99.90;;;4.34;100.00;95970.28;10452877;28;2151;-72
2021/11/16 03:47:56;;;;;;;;;;;5.40;99.90;;;4.33;100.00;95979.31;10440340;28;2128;-73
2021/11/16 03:52:59;;;;;;;;;;;5.40;99.90;;;4.39;100.00;95974.06;10456589;28;1943;-73
2021/11/16 03:58:02;;;;;;;;;;;5.40;99.90;;;4.36;100.00;95982.53;10454861;28;2147;-73
2021/11/16 04:03:04;;;;;;;;;;;5.40;99.90;;;4.39;100.00;95979.41;10451412;28;2017;-73
2021/11/16 04:08:07;;;;;;;;;;;5.50;99.90;;;4.36;100.00;95967.38;10451649;28;2109;-72
2021/11/16 04:13:11;;;;;;;;;;;5.50;99.90;;;4.30;100.00;95969.09;10452575;28;2079;-73
2021/11/16 04:18:34;;;;;;;;;;;5.50;99.90;;;4.26;100.00;95972.44;10457387;28;2024;-73
2021/11/16 04:23:57;;;;;;;;;;;5.40;99.90;;;4.24;100.00;95967.34;10454499;28;2011;-74
2021/11/16 04:29:20;;;;;;;;;;;5.40;99.90;;;4.31;100.00;95964.59;10449068;28;2203;-73
2021/11/16 04:34:23;;;;;;;;;;;5.40;99.90;;;4.25;100.00;95979.59;10453005;28;2332;-73
2021/11/16 04:39:26;;;;;;;;;;;5.40;99.90;;;4.29;100.00;95975.47;10450103;28;2009;-73
2021/11/16 04:44:29;;;;;;;;;;;5.40;99.90;;;4.32;100.00;95987.50;10453986;28;2092;-73
2021/11/16 04:49:36;;;;;;;;;;;5.40;99.90;;;4.28;100.00;95981.81;10457499;28;2088;-72
2021/11/16 05:02:32;;;;;;;;;;;5.40;99.90;;;4.29;100.00;95972.81;10447205;28;2032;-72
2021/11/16 05:05:20;;;;;;;;;;;5.30;99.90;;;4.25;100.00;95976.94;10451494;28;1928;-73
2021/11/16 05:10:23;;;;;;;;;;;5.30;99.90;;;4.11;100.00;95980.06;10460647;28;2073;-73
2021/11/16 05:15:26;;;;;;;;;;;5.30;99.90;;;4.11;100.00;95985.38;10460073;28;2090;-73
2021/11/16 05:20:29;;;;;;;;;;;5.20;99.90;;;4.20;100.00;95976.00;10452490;28;1981;-73
2021/11/16 05:25:34;;;;;;;;;;;5.30;99.90;;;4.18;100.00;95981.56;10456492;28;2025;-73
2021/11/16 05:30:37;;;;;;;;;;;5.30;99.90;;;4.25;100.00;95992.09;10458247;28;2042;-72
2021/11/16 05:35:40;;;;;;;;;;;5.30;99.90;;;4.26;100.00;96002.53;10466156;28;1962;-72
2021/11/16 05:40:43;;;;;;;;;;;5.30;99.90;;;4.33;100.00;96003.25;10443353;28;2024;-73
2021/11/16 05:45:46;;;;;;;;;;;5.40;99.90;;;4.29;100.00;95991.44;10455209;28;1986;-73
2021/11/16 05:50:49;;;;;;;;;;;5.40;99.90;;;4.38;100.00;95991.91;10443732;28;2129;-73
2021/11/16 05:55:52;;;;;;;;;;;5.40;99.90;;;4.34;100.00;95998.75;10441676;28;2109;-73
2021/11/16 06:00:55;;;;;;;;;;;5.40;99.90;;;4.32;100.00;95998.13;10449522;28;2119;-72
2021/11/16 06:05:58;;;;;;;;;;;5.50;99.90;;;4.29;100.00;95999.41;10455366;28;2458;-73
2021/11/16 06:11:01;;;;;;;;;;;5.40;99.90;;;4.23;100.00;95996.84;10450026;28;2031;-73
2021/11/16 06:16:04;;;;;;;;;;;5.40;99.90;;;4.17;100.00;95995.09;10445313;28;2065;-73
2021/11/16 06:21:07;;;;;;;;;;;5.30;99.90;;;4.14;100.00;95996.38;10444716;28;2118;-73
2021/11/16 06:26:10;;;;;;;;;;;5.20;99.90;;;4.15;100.00;95998.00;10435635;28;2016;-76
2021/11/16 06:31:13;;;;;;;;;;;5.20;99.90;;;4.15;100.00;95999.84;10436501;28;2006;-77
2021/11/16 06:36:16;;;;;;;;;;;5.20;99.90;;;4.19;100.00;96009.78;10444934;28;1426;-72
2021/11/16 06:41:19;;;;;;;;;;;5.30;99.90;;;4.20;100.00;96000.78;10449468;28;1906;-71
2021/11/16 06:46:22;;;;;;;;;;;5.30;99.90;;;4.16;100.00;95993.50;10447660;28;1376;-75
2021/11/16 06:51:25;;;;;;;;;;;5.30;99.90;;;4.18;100.00;95997.53;10451435;28;1907;-73
2021/11/16 06:56:28;;;;;;;;;;;5.30;99.90;;;4.31;100.00;96005.31;10444276;28;1909;-74
2021/11/16 07:01:34;;;;;;;;;;;5.30;99.90;;;4.23;100.00;96010.97;10452292;28;1976;-74
2021/11/16 07:06:36;;;;;;;;;;;5.40;99.90;;;4.21;100.00;96012.25;10454039;28;1968;-72
2021/11/16 07:11:39;;;;;;;;;;;5.30;99.90;;;4.35;100.00;96013.66;10457200;28;1881;-70
2021/11/16 07:16:43;;;;;;;;;;;5.40;99.90;;;4.49;100.00;96015.06;10449398;28;1899;-72
2021/11/16 07:21:46;;;;;;;;;;;5.50;99.90;;;4.49;100.00;96023.06;10446665;28;2059;-72
2021/11/16 07:26:50;;;;;;;;;;;5.50;99.90;;;4.51;100.00;96036.13;10449241;28;1866;-74
2021/11/16 07:31:53;;;;;;;;;;;5.50;99.90;;;4.59;100.00;96030.50;10441679;28;2100;-76
2021/11/16 07:36:58;;;;;;;;;;;5.60;99.90;;;4.54;100.00;96035.69;10448127;28;1872;-73
2021/11/16 07:42:00;;;;;;;;;;;5.80;99.90;;;4.67;100.00;96029.34;10444195;28;1996;-72
2021/11/16 07:47:03;;;;;;;;;;;5.60;99.90;;;4.70;100.00;96027.00;10446535;28;1914;-74
2021/11/16 07:52:07;;;;;;;;;;;5.70;99.90;;;4.69;100.00;96027.25;10436122;28;1924;-77
2021/11/16 07:57:10;;;;;;;;;;;5.80;99.90;;;4.59;100.00;96033.16;10443681;28;1906;-75
2021/11/16 08:02:22;;;;;;;;;;;5.70;99.90;;;4.66;100.00;96035.72;10444408;28;1876;-75
2021/11/16 08:07:30;;;;;;;;;;;5.70;99.90;;;4.65;100.00;96047.41;10444830;28;1940;-76
2021/11/16 08:12:37;;;;;;;;;;;5.70;99.90;;;4.55;100.00;96053.28;10447184;28;1930;-78
2021/11/16 08:17:40;;;;;;;;;;;5.60;99.90;;;4.65;100.00;96050.06;10440923;28;1916;-76
2021/11/16 08:22:43;;;;;;;;;;;5.60;99.90;;;4.71;100.00;96055.28;10449099;28;1885;-76
2021/11/16 08:27:46;;;;;;;;;;;5.80;99.90;;;4.83;100.00;96042.75;10449180;28;2179;-76
2021/11/16 08:32:51;;;;;;;;;;;5.70;99.90;;;4.96;100.00;96056.91;10454331;28;1849;-76
2021/11/16 08:37:56;;;;;;;;;;;7.50;99.90;;;4.78;100.00;96056.00;10452327;28;1906;-76
2021/11/16 08:42:58;;;;;;;;;;;5.80;99.90;;;4.86;100.00;96063.63;10440176;28;1825;-76
2021/11/16 08:48:01;;;;;;;;;;;5.70;99.90;;;4.83;100.00;96053.41;10440976;28;1818;-76
2021/11/16 08:53:04;;;;;;;;;;;5.90;99.90;;;4.80;100.00;96053.91;10434006;28;1845;-78
2021/11/16 08:58:10;;;;;;;;;;;5.80;99.90;;;4.74;100.00;96059.34;10439100;28;1937;-77
2021/11/16 09:03:13;;;;;;;;;;;5.80;99.90;;;4.82;100.00;96056.31;10432855;28;2086;-76
2021/11/16 09:08:16;;;;;;;;;;;5.70;99.90;;;4.99;100.00;96064.44;10444284;28;2089;-75
2021/11/16 09:13:18;;;;;;;;;;;5.80;99.90;;;5.15;100.00;96063.75;10445962;28;2071;-75
2021/11/16 09:18:41;;;;;;;;;;;6.00;99.90;;;5.15;100.00;96067.25;10442949;28;2011;-75
2021/11/16 09:24:05;;;;;;;;;;;6.10;99.90;;;4.95;100.00;96066.75;10446317;28;1942;-73
2021/11/16 09:29:08;;;;;;;;;;;6.00;99.90;;;5.06;100.00;96057.16;10443163;28;1834;-75
2021/11/16 09:34:11;;;;;;;;;;;6.00;99.90;;;4.78;100.00;96066.63;10449819;28;1884;-75
2021/11/16 09:39:16;;;;;;;;;;;5.90;99.90;;;4.72;100.00;96061.44;10445763;28;1981;-74
2021/11/16 09:44:19;;;;;;;;;;;5.70;99.90;;;4.67;100.00;96064.75;10438694;28;2448;-75
2021/11/16 09:49:22;;;;;;;;;;;5.70;99.90;;;4.66;100.00;96065.81;10430544;28;1886;-75
2021/11/16 09:54:25;;;;;;;;;;;5.60;99.90;;;4.61;100.00;96076.34;10440151;28;1861;-75
2021/11/16 09:59:28;;;;;;;;;;;5.50;99.90;;;4.51;100.00;96071.53;10449081;28;1910;-75
2021/11/16 10:04:34;;;;;;;;;;;5.50;99.90;;;4.53;100.00;96068.69;10429874;28;1890;-75
2021/11/16 10:09:41;;;;;;;;;;;5.40;99.90;;;4.60;100.00;96064.06;10438995;28;2499;-77
2021/11/16 10:14:44;;;;;;;;;;;5.60;99.90;;;4.74;100.00;96057.47;10435510;28;1866;-78
2021/11/16 10:19:47;;;;;;;;;;;5.70;99.90;;;4.52;100.00;96048.44;10434394;28;1977;-77
2021/11/16 10:24:50;;;;;;;;;;;5.60;99.90;;;4.77;100.00;96054.38;10440389;28;1845;-76
2021/11/16 10:29:53;;;;;;;;;;;5.60;99.90;;;5.41;100.00;96051.81;10433203;28;1838;-76
2021/11/16 10:34:56;;;;;;;;;;;6.00;99.90;;;5.99;98.87;96055.41;10436059;28;1976;-76
2021/11/16 10:39:59;;;;;;;;;;;6.50;99.90;;;5.80;97.26;96046.75;10446619;28;1980;-76
2021/11/16 10:45:02;;;;;;;;;;;6.60;99.90;;;5.69;96.03;96037.72;10453839;28;1976;-78
2021/11/16 10:50:05;;;;;;;;;;;6.60;99.90;;;5.59;97.71;96045.50;10460225;28;1921;-76
2021/11/16 10:55:08;;;;;;;;;;;6.50;99.90;;;5.53;97.04;96035.78;10451636;28;1884;-77
2021/11/16 11:00:10;;;;;;;;;;;6.60;99.90;;;5.30;98.12;96040.13;10445830;28;2219;-76
2021/11/16 11:05:13;;;;;;;;;;;6.50;99.90;;;5.48;98.47;96033.03;10434847;28;2346;-76
2021/11/16 11:10:19;;;;;;;;;;;6.40;99.90;;;5.41;95.34;96031.28;10451744;28;1885;-78
2021/11/16 11:15:22;;;;;;;;;;;6.30;99.90;;;5.08;97.52;96028.41;10457435;28;1939;-79
2021/11/16 11:20:25;;;;;;;;;;;6.20;99.90;;;5.09;99.58;96030.03;10454590;28;1981;-76
2021/11/16 11:25:37;;;;;;;;;;;6.00;99.90;;;5.23;99.18;96033.28;10459674;28;1971;-78
2021/11/16 11:30:40;;;;;;;;;;;6.10;99.90;;;5.09;100.00;96027.38;10454660;28;1878;-76
2021/11/16 11:35:43;;;;;;;;;;;6.10;99.90;;;5.14;100.00;96022.16;10453161;28;1915;-75
2021/11/16 11:40:46;;;;;;;;;;;6.10;99.90;;;5.20;100.00;96010.56;10453913;28;1918;-75
2021/11/16 11:45:49;;;;;;;;;;;6.10;99.90;;;4.98;100.00;96001.56;10446205;28;1874;-75
2021/11/16 11:50:52;;;;;;;;;;;6.10;99.90;;;4.87;100.00;96003.97;10443799;28;1893;-78
2021/11/16 11:55:55;;;;;;;;;;;5.90;99.90;;;4.72;100.00;96002.84;10456396;28;1892;-74
2021/11/16 12:00:59;;;;;;;;;;;5.90;99.90;;;4.58;100.00;96002.22;10445509;28;1973;-75
2021/11/16 12:06:02;;;;;;;;;;;5.80;99.90;;;4.82;100.00;96001.19;10456793;28;1916;-76
2021/11/16 12:11:05;;;;;;;;;;;5.80;99.90;;;4.75;100.00;95997.84;10457975;28;2216;-77
2021/11/16 12:16:08;;;;;;;;;;;5.70;99.90;;;4.82;100.00;95997.72;10452964;28;2168;-76
2021/11/16 12:21:11;;;;;;;;;;;5.80;99.90;;;4.61;100.00;95991.13;10451561;28;2120;-75
2021/11/16 12:26:16;;;;;;;;;;;5.80;99.90;;;4.83;100.00;95989.50;10455454;28;1304;-77
2021/11/16 12:31:19;;;;;;;;;;;5.80;99.90;;;4.52;100.00;95984.53;10452405;28;1418;-78
2021/11/16 12:36:22;;;;;;;;;;;5.70;99.90;;;4.68;100.00;95983.03;10455908;28;1315;-76
2021/11/16 12:41:25;;;;;;;;;;;5.70;99.90;;;4.81;100.00;95986.25;10439205;28;1935;-76
2021/11/16 12:46:29;;;;;;;;;;;5.70;99.90;;;4.71;100.00;95991.38;10443146;28;1944;-77
2021/11/16 12:51:33;;;;;;;;;;;5.80;99.90;;;4.65;100.00;95986.16;10454104;28;1985;-78
2021/11/16 12:56:36;;;;;;;;;;;5.70;99.90;;;4.89;100.00;95993.91;10436301;28;2199;-76
2021/11/16 13:01:39;;;;;;;;;;;5.80;99.90;;;4.98;100.00;95993.56;10436824;28;2272;-76
2021/11/16 13:06:42;;;;;;;;;;;5.90;99.90;;;4.76;100.00;95983.47;10440189;28;2068;-78
2021/11/16 13:11:45;;;;;;;;;;;5.90;99.90;;;4.91;100.00;95979.56;10447380;28;1968;-76
2021/11/16 13:16:48;;;;;;;;;;;5.90;99.90;;;4.85;100.00;95976.78;10457918;28;1854;-78
2021/11/16 13:21:52;;;;;;;;;;;5.90;99.90;;;4.92;100.00;95973.19;10473194;28;1997;-78
2021/11/16 13:26:58;;;;;;;;;;;5.90;99.90;;;5.08;100.00;95965.28;10454677;28;1972;-78
2021/11/16 13:32:01;;;;;;;;;;;6.00;99.90;;;5.09;100.00;95966.91;10451577;28;1973;-78
2021/11/16 13:37:04;;;;;;;;;;;6.00;99.90;;;5.08;100.00;95969.78;10456766;28;1861;-78
2021/11/16 13:42:10;;;;;;;;;;;6.10;99.90;;;4.78;100.00;95965.44;10448730;28;1939;-79
2021/11/16 13:47:17;;;;;;;;;;;6.00;99.90;;;4.53;100.00;95962.19;10452719;28;1917;-79
2021/11/16 13:52:19;;;;;;;;;;;5.80;99.90;;;4.48;100.00;95956.75;10451126;28;1974;-79
2021/11/16 13:57:22;;;;;;;;;;;5.60;99.90;;;4.51;100.00;95954.41;10444445;28;1906;-76
2021/11/16 14:02:25;;;;;;;;;;;5.70;99.90;;;4.45;100.00;95957.19;10430312;28;1958;-77
2021/11/16 14:07:28;;;;;;;;;;;5.60;99.90;;;4.54;100.00;95958.47;10453778;28;1936;-77
2021/11/16 14:12:31;;;;;;;;;;;5.60;99.90;;;4.58;100.00;95960.47;10454651;28;1861;-76
2021/11/16 14:17:34;;;;;;;;;;;5.70;99.90;;;4.58;100.00;95964.94;10455895;28;2022;-78
2021/11/16 14:22:38;;;;;;;;;;;5.70;99.90;;;4.49;100.00;95959.16;10454956;28;1945;-77
2021/11/16 14:27:40;;;;;;;;;;;5.60;99.90;;;4.36;100.00;95951.41;10454418;28;1846;-77
2021/11/16 14:32:44;;;;;;;;;;;5.50;99.90;;;4.23;100.00;95941.78;10449176;28;1779;-76
2021/11/16 14:37:46;;;;;;;;;;;5.50;99.90;;;4.24;100.00;95947.91;10455383;28;1897;-77
2021/11/16 14:42:49;;;;;;;;;;;5.50;99.90;;;4.31;100.00;95941.44;10453548;28;1917;-78
2021/11/16 14:48:02;;;;;;;;;;;5.40;99.90;;;4.05;100.00;95947.19;10456370;28;1953;-78
2021/11/16 14:53:05;;;;;;;;;;;5.30;99.90;;;4.16;100.00;95946.41;10481512;28;1831;-76
2021/11/16 14:58:08;;;;;;;;;;;5.30;99.90;;;4.18;100.00;95944.31;10461588;28;1952;-74
2021/11/16 15:03:11;;;;;;;;;;;5.30;99.90;;;4.18;100.00;95944.31;10472928;28;1971;-76
2021/11/16 15:08:15;;;;;;;;;;;5.30;99.90;;;4.06;100.00;95946.13;10484219;28;1333;-77
2021/11/16 15:13:18;;;;;;;;;;;5.20;99.90;;;4.18;100.00;95949.63;10473135;28;1355;-77
2021/11/16 15:18:21;;;;;;;;;;;5.20;99.90;;;3.94;100.00;95945.31;10464114;28;1702;-76
2021/11/16 15:23:27;;;;;;;;;;;5.20;99.90;;;3.89;100.00;95939.88;10464584;28;1921;-76
2021/11/16 15:28:50;;;;;;;;;;;5.10;99.90;;;3.98;100.00;95935.84;10457050;28;1945;-76
2021/11/16 15:33:53;;;;;;;;;;;5.10;99.90;;;4.08;100.00;95930.78;10449639;28;1873;-76
2021/11/16 15:38:57;;;;;;;;;;;5.20;99.90;;;4.11;100.00;95930.31;10453383;28;1996;-77
2021/11/16 15:44:11;;;;;;;;;;;5.10;99.90;;;4.15;100.00;95936.81;10451996;28;1910;-77
2021/11/16 15:49:23;;;;;;;;;;;5.20;99.90;;;4.02;100.00;95929.03;10450666;28;1873;-78
2021/11/16 15:59:52;;;;;;;;;;;5.10;99.90;;;3.96;100.00;95929.94;10362271;28;1910;-77
2021/11/16 16:04:55;;;;;;;;;;;5.10;99.90;;;3.99;100.00;95940.13;10444724;28;1882;-74
2021/11/16 16:10:00;;;;;;;;;;;5.00;99.90;;;3.95;100.00;95944.28;10445042;28;1858;-76
2021/11/16 16:15:03;;;;;;;;;;;5.10;99.90;;;3.85;100.00;95939.50;10433389;28;1858;-77
2021/11/16 16:20:06;;;;;;;;;;;5.00;99.90;;;3.93;100.00;95943.69;10445654;28;2005;-77
2021/11/16 16:25:09;;;;;;;;;;;5.00;99.90;;;3.96;100.00;95940.59;10436842;28;1853;-79
2021/11/16 16:30:17;;;;;;;;;;;5.00;99.90;;;3.99;100.00;95932.13;10452834;28;1806;-78
2021/11/16 16:35:20;;;;;;;;;;;5.10;99.90;;;4.07;100.00;95937.13;10457233;28;1854;-76
2021/11/16 16:40:28;;;;;;;;;;;5.20;99.90;;;3.95;100.00;95933.66;10454398;28;1983;-77
2021/11/16 16:45:31;;;;;;;;;;;5.10;99.90;;;4.00;100.00;95944.38;10458485;28;1921;-77
2021/11/16 16:50:34;;;;;;;;;;;5.10;99.90;;;4.03;100.00;95935.97;10456755;28;1801;-76
2021/11/16 16:55:37;;;;;;;;;;;5.10;99.90;;;4.08;100.00;95933.44;10450404;28;1933;-76
2021/11/16 17:00:40;;;;;;;;;;;5.10;99.90;;;4.21;100.00;95935.09;10449929;28;1886;-76
2021/11/16 17:05:43;;;;;;;;;;;5.20;99.90;;;4.15;100.00;95928.81;10441367;28;1990;-77
2021/11/16 17:10:46;;;;;;;;;;;5.20;99.90;;;4.09;100.00;95934.25;10447630;28;1942;-80
2021/11/16 17:15:50;;;;;;;;;;;5.30;99.90;;;4.07;100.00;95927.31;10445733;28;1882;-74
2021/11/16 17:20:53;;;;;;;;;;;5.20;99.90;;;4.12;100.00;95934.59;10454337;28;1914;-77
2021/11/16 17:25:56;;;;;;;;;;;5.20;99.90;;;4.01;100.00;95927.41;10448627;28;2033;-78
2021/11/16 17:30:59;;;;;;;;;;;5.20;99.90;;;4.02;100.00;95927.19;10454611;28;1924;-81
2021/11/16 17:36:02;;;;;;;;;;;5.20;99.90;;;3.90;100.00;95925.53;10484092;28;1344;-79
2021/11/16 17:41:06;;;;;;;;;;;5.10;99.90;;;3.86;100.00;95919.84;10462936;28;1966;-78
2021/11/16 17:46:09;;;;;;;;;;;5.10;99.90;;;3.91;100.00;95927.97;10462771;28;1320;-81
2021/11/16 17:51:12;;;;;;;;;;;5.10;99.90;;;4.07;100.00;95929.13;10462689;28;1548;-80
2021/11/16 17:56:15;;;;;;;;;;;5.10;99.90;;;4.08;100.00;95928.13;10464661;28;1244;-78
2021/11/16 18:01:18;;;;;;;;;;;5.10;99.90;;;4.23;100.00;95925.00;10465225;28;1953;-83
2021/11/16 18:11:37;;;;;;;;;;;5.30;99.90;;;4.26;100.00;95928.03;10466007;28;1366;-78
2021/11/16 18:16:40;;;;;;;;;;;5.40;99.90;;;4.29;100.00;95918.78;10465779;28;1343;-74
2021/11/16 18:21:43;;;;;;;;;;;5.40;99.90;;;4.25;100.00;95906.97;10448555;28;1973;-75
2021/11/16 18:26:48;;;;;;;;;;;5.40;99.90;;;4.16;100.00;95903.84;10444453;28;1610;-76
2021/11/16 18:31:51;;;;;;;;;;;5.30;99.90;;;4.21;100.00;95903.97;10436202;28;1549;-76
2021/11/16 18:36:55;;;;;;;;;;;5.30;99.90;;;4.18;100.00;95901.75;10427343;28;1590;-76
2021/11/16 18:42:05;;;;;;;;;;;5.30;99.90;;;4.24;100.00;95900.81;10445641;28;1957;-76
2021/11/16 18:47:11;;;;;;;;;;;5.30;99.90;;;4.28;100.00;95904.66;10455314;28;1390;-76
2021/11/16 18:52:14;;;;;;;;;;;5.30;99.90;;;4.28;100.00;95912.63;10454237;28;1101;-77
2021/11/16 18:57:18;;;;;;;;;;;5.30;99.90;;;4.21;100.00;95919.13;10451058;28;1333;-74
2021/11/16 19:02:21;;;;;;;;;;;5.30;99.90;;;4.10;100.00;95911.94;10451013;28;1910;-79
2021/11/16 19:07:24;;;;;;;;;;;5.30;99.90;;;4.21;100.00;95909.28;10465493;28;1506;-81
2021/11/16 19:12:27;;;;;;;;;;;5.30;99.90;;;4.24;100.00;95916.78;10467050;28;1409;-80
2021/11/16 19:17:30;;;;;;;;;;;5.30;99.90;;;4.17;100.00;95923.25;10458277;28;1483;-77
2021/11/16 19:22:51;;;;;;;;;;;5.30;99.90;;;4.04;100.00;95921.63;10468910;28;1969;-79
2021/11/16 19:28:00;;;;;;;;;;;5.20;99.90;;;4.17;100.00;95924.06;10469090;28;1335;-78
2021/11/16 19:33:03;;;;;;;;;;;5.30;99.90;;;4.23;100.00;95920.50;10451110;28;1558;-78
2021/11/16 19:38:07;;;;;;;;;;;5.30;99.90;;;4.17;100.00;95916.09;10457270;28;1474;-82
2021/11/16 19:43:10;;;;;;;;;;;5.30;99.90;;;4.29;100.00;95922.25;10465827;28;1987;-79
2021/11/16 19:48:13;;;;;;;;;;;5.30;99.90;;;4.47;100.00;95923.19;10464793;28;1461;-79
2021/11/16 19:53:16;;;;;;;;;;;5.40;99.90;;;4.52;100.00;95918.78;10462446;28;1482;-79
2021/11/16 19:58:19;;;;;;;;;;;5.50;99.90;;;4.39;100.00;95924.34;10456868;28;1485;-78
2021/11/16 20:03:22;;;;;;;;;;;5.50;99.90;;;4.29;100.00;95924.91;10472170;28;1910;-77
2021/11/16 20:08:29;;;;;;;;;;;5.40;99.90;;;4.28;100.00;95933.94;10474171;28;1293;-77
2021/11/16 20:13:32;;;;;;;;;;;5.40;99.90;;;4.25;100.00;95930.91;10483671;28;1430;-79
2021/11/16 20:18:35;;;;;;;;;;;5.40;99.90;;;4.28;100.00;95923.28;10480423;28;1489;-80
2021/11/16 20:23:38;;;;;;;;;;;5.40;99.90;;;4.31;100.00;95916.69;10476298;28;1913;-76
2021/11/16 20:28:49;;;;;;;;;;;5.30;99.90;;;4.40;100.00;95919.81;10476449;28;1418;-78
2021/11/16 20:33:59;;;;;;;;;;;5.40;99.90;;;4.48;100.00;95933.59;10464684;28;1468;-77
2021/11/16 20:39:17;;;;;;;;;;;5.50;99.90;;;4.29;100.00;95930.22;10455321;28;1477;-78
2021/11/16 20:44:25;;;;;;;;;;;5.50;99.90;;;4.16;100.00;95930.44;10459912;28;1988;-80
2021/11/16 21:00:19;;;;;;;;;;;5.30;99.90;;;4.20;100.00;95930.78;10463976;28;1407;-78
2021/11/16 21:05:22;;;;;;;;;;;5.30;99.90;;;4.27;100.00;95928.84;10452854;28;1909;-78
2021/11/16 21:10:29;;;;;;;;;;;5.30;99.90;;;4.25;100.00;95936.22;10455664;28;1452;-77
2021/11/16 21:15:32;;;;;;;;;;;5.30;99.90;;;4.28;100.00;95936.59;10453455;28;1268;-76
2021/11/16 21:20:35;;;;;;;;;;;5.30;99.90;;;4.33;100.00;95942.03;10451711;28;1941;-78
2021/11/16 21:25:38;;;;;;;;;;;5.30;99.90;;;4.34;100.00;95946.31;10452719;28;1320;-77
2021/11/16 21:30:45;;;;;;;;;;;5.40;99.90;;;4.32;100.00;95939.59;10451604;28;1423;-78
2021/11/16 21:35:48;;;;;;;;;;;5.40;99.90;;;4.22;100.00;95929.53;10454467;28;1355;-77
2021/11/16 21:40:51;;;;;;;;;;;5.30;99.90;;;4.33;100.00;95934.06;10451353;28;1903;-77
2021/11/16 21:45:54;;;;;;;;;;;5.40;99.90;;;4.28;100.00;95944.56;10450620;28;1284;-78
2021/11/16 21:50:57;;;;;;;;;;;5.30;99.90;;;4.28;100.00;95939.25;10446698;28;1424;-77
2021/11/16 21:56:02;;;;;;;;;;;5.40;99.90;;;4.33;100.00;95947.38;10451187;28;1367;-77
2021/11/16 22:01:05;;;;;;;;;;;5.30;99.90;;;4.20;100.00;95938.75;10446721;28;1972;-77
2021/11/16 22:06:17;;;;;;;;;;;5.30;99.90;;;4.22;100.00;95929.53;10449387;28;1279;-77
2021/11/16 22:16:24;;;;;;;;;;;5.20;99.90;;;4.01;100.00;95930.06;10449818;28;1338;-77
2021/11/16 22:21:27;;;;;;;;;;;5.20;99.90;;;3.98;100.00;95935.84;10449019;28;1905;-78
2021/11/16 22:26:30;;;;;;;;;;;5.10;99.90;;;3.99;100.00;95940.13;10446142;28;1376;-77
2021/11/16 22:31:32;;;;;;;;;;;5.10;99.90;;;4.04;100.00;95938.41;10445573;28;1455;-77
2021/11/16 22:36:35;;;;;;;;;;;5.10;99.90;;;4.06;100.00;95940.81;10455425;28;1361;-78
2021/11/16 22:41:38;;;;;;;;;;;5.10;99.90;;;3.97;100.00;95952.84;10454562;28;1914;-77
2021/11/16 22:46:41;;;;;;;;;;;5.00;99.90;;;3.89;100.00;95948.66;10456844;28;1292;-76
2021/11/16 22:51:44;;;;;;;;;;;5.00;99.90;;;3.97;100.00;95948.31;10454533;28;1454;-76
2021/11/16 22:56:47;;;;;;;;;;;5.00;99.90;;;3.91;100.00;95943.09;10456497;28;1323;-77
